Time;durP1;ratioP1;P1;durP2;ratioP2;P2;SDS_P1;SDS_P2;PMS_P1;PMS_P2;Temp;Humidity;BMP_temperature;BMP_pressure;BME280_temperature;BME280_humidity;BME280_pressure;Samples;Min_cycle;Max_cycle;Signal;HPM_P1;HPM_P2
2021/01/22 00:02:41;;;;;;;4.12;3.10;;;;;;;23.11;24.67;98456.48;3629362;79;26769;-66
2021/01/22 00:07:43;;;;;;;4.30;3.58;;;;;;;23.04;24.71;98467.73;3564684;80;26474;-64
2021/01/22 00:12:45;;;;;;;5.55;3.90;;;;;;;22.98;24.73;98462.32;3585042;79;27883;-64
2021/01/22 00:17:47;;;;;;;4.25;3.33;;;;;;;22.91;24.80;98446.64;3539051;83;26653;-65
2021/01/22 00:22:50;;;;;;;3.47;3.17;;;;;;;22.86;24.81;98436.02;3571474;82;26284;-67
2021/01/22 00:27:52;;;;;;;6.10;4.22;;;;;;;22.79;24.83;98436.61;3605090;82;26012;-65
2021/01/22 00:32:55;;;;;;;4.45;3.35;;;;;;;22.73;24.89;98439.88;3608395;81;25768;-65
2021/01/22 00:37:57;;;;;;;4.45;3.65;;;;;;;22.67;24.92;98434.47;3607180;82;26246;-65
2021/01/22 00:43:01;;;;;;;3.90;3.55;;;;;;;22.59;24.94;98423.20;3583739;82;25767;-65
2021/01/22 00:48:03;;;;;;;4.83;3.35;;;;;;;22.53;24.97;98413.15;3606917;82;26230;-65
2021/01/22 00:53:05;;;;;;;5.78;3.72;;;;;;;22.46;25.04;98409.66;3583138;82;26603;-65
2021/01/22 00:58:07;;;;;;;6.55;4.00;;;;;;;22.40;25.11;98407.53;3606487;82;25916;-65
2021/01/22 01:03:09;;;;;;;5.10;3.70;;;;;;;22.35;25.17;98405.84;3571396;82;25868;-65
2021/01/22 01:08:11;;;;;;;5.15;3.83;;;;;;;22.30;25.28;98409.39;3550778;82;25876;-67
2021/01/22 01:13:14;;;;;;;5.37;3.75;;;;;;;22.24;25.37;98397.19;3552119;82;25944;-66
2021/01/22 01:18:16;;;;;;;6.03;3.37;;;;;;;22.18;25.42;98387.13;3605140;82;26030;-66
2021/01/22 01:23:17;;;;;;;4.65;3.65;;;;;;;22.13;25.46;98383.30;3604534;81;25995;-69
2021/01/22 01:28:20;;;;;;;6.25;3.62;;;;;;;22.08;25.47;98376.75;3604893;82;26171;-67
2021/01/22 01:33:23;;;;;;;5.47;4.33;;;;;;;22.03;25.50;98374.27;3604641;82;26572;-67
2021/01/22 01:38:25;;;;;;;5.95;3.77;;;;;;;21.98;25.51;98365.00;3605414;82;26049;-70
2021/01/22 01:43:28;;;;;;;5.33;4.20;;;;;;;21.92;25.52;98363.66;3605624;82;25849;-71
2021/01/22 01:48:31;;;;;;;4.92;4.50;;;;;;;21.86;25.53;98350.89;3606083;82;25888;-68
2021/01/22 01:53:33;;;;;;;7.67;4.53;;;;;;;21.82;25.61;98348.63;3605990;82;25892;-69
2021/01/22 01:58:35;;;;;;;5.97;4.35;;;;;;;21.77;25.87;98349.66;3603435;80;25853;-71
2021/01/22 02:03:37;;;;;;;7.65;4.90;;;;;;;21.74;25.84;98353.05;3602800;82;26376;-70
2021/01/22 02:08:40;;;;;;;5.50;4.20;;;;;;;21.71;25.88;98332.03;3597372;82;25885;-71
2021/01/22 02:13:45;;;;;;;6.85;4.37;;;;;;;21.67;25.93;98323.02;3603056;81;25917;-71
2021/01/22 02:18:50;;;;;;;7.37;5.30;;;;;;;21.60;25.98;98313.31;3606857;82;25994;-75
2021/01/22 02:24:03;;;;;;;13.50;5.80;;;;;;;21.56;26.09;98305.62;3606348;82;32784;-75
2021/01/22 02:29:07;;;;;;;9.30;6.00;;;;;;;21.52;26.20;98306.08;3606366;82;25958;-69
2021/01/22 02:34:12;;;;;;;6.50;5.22;;;;;;;21.47;26.26;98291.40;3606784;82;25723;-70
2021/01/22 02:39:17;;;;;;;7.00;5.20;;;;;;;21.42;26.33;98291.63;3607498;82;32467;-69
2021/01/22 02:44:20;;;;;;;7.87;5.62;;;;;;;21.37;26.38;98275.62;3605514;82;25843;-64
2021/01/22 02:49:23;;;;;;;8.60;5.87;;;;;;;21.33;26.44;98265.23;3602098;82;25767;-68
2021/01/22 02:54:26;;;;;;;8.88;5.83;;;;;;;21.28;26.46;98254.62;3602124;81;25862;-72
2021/01/22 02:59:38;;;;;;;7.62;6.05;;;;;;;21.23;26.45;98244.80;3600971;82;25938;-70
2021/01/22 03:04:42;;;;;;;9.83;6.20;;;;;;;21.19;26.41;98246.57;3600304;82;26573;-70
2021/01/22 03:09:46;;;;;;;8.90;5.60;;;;;;;21.16;26.37;98236.41;3579620;82;26117;-68
2021/01/22 03:14:50;;;;;;;11.03;6.35;;;;;;;21.10;26.35;98237.20;3601026;80;26565;-68
2021/01/22 03:19:53;;;;;;;10.32;6.55;;;;;;;21.07;26.33;98229.78;3600317;81;26151;-66
2021/01/22 03:24:55;;;;;;;9.95;6.80;;;;;;;21.02;26.33;98206.98;3600927;82;26843;-65
2021/01/22 03:29:56;;;;;;;12.35;7.90;;;;;;;20.99;26.34;98214.99;3564411;82;25957;-64
2021/01/22 03:34:58;;;;;;;9.50;6.55;;;;;;;20.94;26.43;98212.51;3527149;83;30338;-64
2021/01/22 03:40:00;;;;;;;7.72;6.55;;;;;;;20.88;26.46;98205.17;3524336;83;26468;-64
2021/01/22 03:45:03;;;;;;;10.82;7.05;;;;;;;20.86;26.47;98199.30;3525924;83;26027;-65
2021/01/22 03:50:06;;;;;;;10.98;6.70;;;;;;;20.83;26.48;98194.00;3576454;82;25954;-68
2021/01/22 03:55:09;;;;;;;11.00;6.53;;;;;;;20.79;26.54;98197.16;3605947;82;26032;-68
2021/01/22 04:00:13;;;;;;;8.43;6.25;;;;;;;20.76;26.53;98174.05;3605796;82;25758;-67
2021/01/22 04:05:15;;;;;;;9.73;6.58;;;;;;;20.73;26.53;98162.54;3605465;82;25899;-69
2021/01/22 04:10:18;;;;;;;17.10;5.97;;;;;;;20.69;26.55;98146.74;3582314;82;26053;-68
2021/01/22 04:15:20;;;;;;;12.50;6.30;;;;;;;20.65;26.55;98145.84;3605314;82;26538;-72
2021/01/22 04:20:23;;;;;;;11.05;6.40;;;;;;;20.61;26.59;98143.02;3605217;82;26791;-65
2021/01/22 04:25:24;;;;;;;10.93;6.97;;;;;;;20.59;26.59;98141.77;3605921;82;30085;-66
2021/01/22 04:30:26;;;;;;;10.50;6.70;;;;;;;20.56;26.63;98137.03;3605398;82;30640;-65
2021/01/22 04:35:28;;;;;;;10.28;7.15;;;;;;;20.52;26.62;98139.63;3606632;82;25783;-66
2021/01/22 04:40:30;;;;;;;9.38;6.42;;;;;;;20.46;26.62;98124.20;3605257;82;30760;-66
2021/01/22 04:45:32;;;;;;;10.65;6.90;;;;;;;20.44;26.63;98122.39;3606958;81;25899;-67
2021/01/22 04:50:35;;;;;;;12.70;6.80;;;;;;;20.41;26.61;98119.01;3607381;81;26006;-65
2021/01/22 04:55:41;;;;;;;11.25;6.75;;;;;;;20.38;26.59;98121.03;3607105;80;25821;-69
2021/01/22 05:00:44;;;;;;;10.30;6.80;;;;;;;20.34;26.58;98113.89;3618279;81;25926;-68
2021/01/22 05:05:47;;;;;;;15.95;8.25;;;;;;;20.29;26.62;98108.14;3618387;81;26212;-64
2021/01/22 05:10:50;;;;;;;9.53;6.92;;;;;;;20.23;26.67;98109.48;3619341;80;26207;-63
2021/01/22 05:16:16;;;;;;;12.55;8.05;;;;;;;20.22;26.70;98120.08;3617941;81;26611;-64
2021/01/22 05:21:20;;;;;;;9.90;6.12;;;;;;;20.18;26.71;98132.70;3618387;81;26283;-64
2021/01/22 05:26:21;;;;;;;10.08;6.95;;;;;;;20.14;26.69;98148.83;3618033;81;25887;-62
2021/01/22 05:31:28;;;;;;;12.00;6.28;;;;;;;20.11;26.72;98150.06;3618314;80;25838;-61
2021/01/22 05:36:32;;;;;;;10.25;7.45;;;;;;;20.07;26.71;98174.28;3607049;80;26157;-65
2021/01/22 05:41:34;;;;;;;8.83;7.00;;;;;;;20.04;26.76;98161.98;3606142;79;26089;-66
2021/01/22 05:46:37;;;;;;;13.22;7.60;;;;;;;20.01;26.77;98163.45;3573736;80;25771;-64
2021/01/22 05:51:40;;;;;;;9.95;6.37;;;;;;;19.97;26.80;98152.28;3544806;82;26422;-64
2021/01/22 05:56:57;;;;;;;12.70;7.92;;;;;;;19.93;26.79;98137.84;3529606;81;26039;-67
2021/01/22 06:01:59;;;;;;;11.35;7.50;;;;;;;19.90;26.78;98131.74;3491086;81;26382;-69
2021/01/22 06:07:02;;;;;;;16.52;8.40;;;;;;;19.87;26.83;98116.22;3498332;83;26541;-66
2021/01/22 06:12:06;;;;;;;12.80;8.18;;;;;;;19.84;26.83;98111.70;3554321;81;26263;-65
2021/01/22 06:17:08;;;;;;;14.50;7.67;;;;;;;19.81;26.84;98094.80;3556537;82;26052;-66
2021/01/22 06:22:20;;;;;;;14.70;7.00;;;;;;;19.78;26.81;98097.38;3552836;81;26297;-64
2021/01/22 06:27:24;;;;;;;11.22;7.37;;;;;;;19.74;26.81;98091.05;3539092;81;28220;-65
2021/01/22 06:32:29;;;;;;;10.43;7.37;;;;;;;19.72;26.83;98091.95;3575716;81;26232;-65
2021/01/22 06:37:31;;;;;;;11.70;7.75;;;;;;;19.69;26.83;98092.05;3524394;82;25799;-63
2021/01/22 06:42:39;;;;;;;11.20;7.62;;;;;;;19.65;26.84;98090.34;3518912;82;26081;-59
2021/01/22 06:47:41;;;;;;;14.98;9.33;;;;;;;19.61;26.85;98090.78;3530225;80;25817;-64
2021/01/22 06:52:46;;;;;;;15.50;11.80;;;;;;;19.57;26.93;98077.73;3519465;80;25922;-63
2021/01/22 06:57:53;;;;;;;27.13;12.50;;;;;;;19.55;27.25;98071.87;3501447;82;26019;-60
2021/01/22 07:02:54;;;;;;;13.75;9.88;;;;;;;19.56;27.47;98070.75;3569006;82;26384;-61
2021/01/22 07:07:56;;;;;;;16.57;9.05;;;;;;;19.57;27.60;98063.63;3586968;82;30206;-62
2021/01/22 07:12:58;;;;;;;14.33;9.00;;;;;;;19.60;27.66;98054.06;3559870;82;26064;-65
2021/01/22 07:18:01;;;;;;;14.85;8.65;;;;;;;19.60;27.66;98045.39;3547785;82;26678;-61
2021/01/22 07:23:02;;;;;;;9.20;8.25;;;;;;;19.62;27.65;98035.59;3611518;80;26339;-62
2021/01/22 07:28:14;;;;;;;9.03;7.55;;;;;;;19.63;27.63;98040.67;3643195;80;25877;-62
2021/01/22 07:33:37;;;;;;;9.05;7.05;;;;;;;19.64;27.66;98017.92;3593326;80;25935;-62
2021/01/22 07:38:40;;;;;;;11.85;8.60;;;;;;;19.64;27.66;98030.09;3563707;80;25940;-60
2021/01/22 07:43:42;;;;;;;9.03;7.00;;;;;;;19.65;27.62;98011.39;3639960;80;26163;-62
2021/01/22 07:48:43;;;;;;;12.45;8.43;;;;;;;19.68;27.60;97997.20;3609969;80;25937;-61
2021/01/22 07:53:45;;;;;;;9.23;6.53;;;;;;;19.68;27.56;98016.12;3621674;80;26341;-63
2021/01/22 07:58:47;;;;;;;9.88;7.62;;;;;;;19.69;27.65;98010.95;3629466;80;25973;-59
2021/01/22 08:03:48;;;;;;;8.75;6.92;;;;;;;19.68;27.58;98010.72;3601643;80;26221;-59
2021/01/22 08:09:12;;;;;;;7.05;6.12;;;;;;;19.64;27.53;97988.75;3606068;80;25936;-59
2021/01/22 08:14:12;;;;;;;8.50;6.03;;;;;;;19.64;27.58;97984.70;3603269;80;25891;-60
2021/01/22 08:19:14;;;;;;;9.23;6.37;;;;;;;19.64;27.58;97993.59;3611702;80;30346;-60
2021/01/22 08:24:15;;;;;;;9.83;6.42;;;;;;;19.64;27.62;97992.24;3610155;80;25783;-61
2021/01/22 08:29:17;;;;;;;9.33;5.80;;;;;;;19.64;27.68;97996.86;3608354;80;25907;-61
2021/01/22 08:34:20;;;;;;;7.35;5.55;;;;;;;19.65;27.74;98000.58;3615686;80;26341;-65
2021/01/22 08:39:22;;;;;;;6.75;5.15;;;;;;;19.64;27.79;97991.45;3564929;80;27107;-63
2021/01/22 08:44:24;;;;;;;7.40;6.25;;;;;;;19.63;27.85;97998.77;3540974;81;26565;-60
2021/01/22 08:49:26;;;;;;;9.85;6.03;;;;;;;19.64;27.92;97980.08;3596726;81;26203;-56
2021/01/22 08:54:37;;;;;;;7.10;4.83;;;;;;;19.68;28.01;98001.27;3617826;79;25934;-59
2021/01/22 08:59:57;;;;;;;8.08;4.97;;;;;;;19.67;27.97;98003.73;3693739;79;27111;-60
2021/01/22 09:05:16;;;;;;;7.87;5.28;;;;;;;19.68;27.94;98004.53;3702544;78;25969;-63
2021/01/22 09:10:30;;;;;;;8.43;6.67;;;;;;;19.68;27.93;97991.02;3700197;79;26553;-63
2021/01/22 09:15:32;;;;;;;14.38;7.33;;;;;;;19.67;27.94;97987.52;3636577;79;25865;-62
2021/01/22 09:20:35;;;;;;;10.48;5.92;;;;;;;19.69;28.01;97987.19;3626390;79;25924;-63
2021/01/22 09:25:38;;;;;;;26.33;14.05;;;;;;;19.71;28.10;97988.42;3589258;79;25972;-62
2021/01/22 09:30:42;;;;;;;19.10;9.10;;;;;;;19.73;28.21;97980.77;3610773;80;25931;-59
2021/01/22 09:35:46;;;;;;;20.75;8.00;;;;;;;19.76;28.71;97973.34;3627042;79;26856;-62
2021/01/22 09:40:49;;;;;;;8.20;5.95;;;;;;;19.97;28.45;97983.25;3651140;79;26191;-65
2021/01/22 09:45:52;;;;;;;47.05;18.85;;;;;;;20.02;28.18;97983.02;3625981;79;26193;-60
2021/01/22 09:50:53;;;;;;;8.60;5.70;;;;;;;20.03;28.20;97985.95;3629050;79;25891;-59
2021/01/22 09:55:54;;;;;;;20.80;10.70;;;;;;;20.17;28.13;97976.38;3667200;79;30266;-63
2021/01/22 10:00:56;;;;;;;9.50;5.12;;;;;;;20.39;28.19;97984.59;3674740;79;31338;-60
2021/01/22 10:05:59;;;;;;;14.73;4.72;;;;;;;20.63;28.07;97972.91;3640979;79;25894;-62
2021/01/22 10:11:00;;;;;;;6.60;4.12;;;;;;;20.88;27.94;97959.27;3663236;79;26480;-60
2021/01/22 10:16:02;;;;;;;6.75;4.12;;;;;;;21.11;27.75;97940.75;3681571;79;30579;-61
2021/01/22 10:21:05;;;;;;;5.47;4.70;;;;;;;21.40;27.55;97946.95;3662601;79;26722;-64
2021/01/22 10:26:07;;;;;;;13.83;4.25;;;;;;;21.65;27.41;97944.86;3616114;79;27532;-64
2021/01/22 10:31:10;;;;;;;5.80;3.72;;;;;;;21.90;27.31;97938.66;3685457;79;25994;-64
2021/01/22 10:36:13;;;;;;;5.08;3.77;;;;;;;22.17;27.14;97924.18;3695355;79;25870;-65
2021/01/22 10:41:14;;;;;;;3.42;3.12;;;;;;;22.44;26.92;97925.14;3703532;78;27288;-59
2021/01/22 10:46:17;;;;;;;6.42;4.22;;;;;;;22.71;26.73;97921.98;3694436;79;25837;-61
2021/01/22 10:51:18;;;;;;;9.18;3.10;;;;;;;22.96;26.55;97930.06;3695435;78;26091;-62
2021/01/22 10:56:20;;;;;;;3.22;2.42;;;;;;;23.24;26.37;97925.71;3683293;79;30140;-61
2021/01/22 11:01:21;;;;;;;4.92;3.25;;;;;;;23.51;26.16;97924.65;3656420;79;30772;-60
2021/01/22 11:06:22;;;;;;;4.90;3.10;;;;;;;23.75;25.91;97934.38;3676686;79;30259;-60
2021/01/22 11:11:24;;;;;;;3.75;2.37;;;;;;;23.97;25.66;97931.97;3683923;78;30246;-60
2021/01/22 11:16:25;;;;;;;4.87;3.12;;;;;;;24.13;25.46;97921.14;3662309;79;30138;-61
2021/01/22 11:21:26;;;;;;;3.90;2.98;;;;;;;24.28;25.24;97916.69;3669903;79;31401;-63
2021/01/22 11:26:28;;;;;;;5.72;2.62;;;;;;;24.39;25.03;97897.77;3682701;79;30969;-63
2021/01/22 11:31:29;;;;;;;4.00;2.80;;;;;;;24.49;24.93;97891.08;3664630;79;30214;-61
2021/01/22 11:36:31;;;;;;;23.57;6.25;;;;;;;24.60;24.88;97887.70;3684133;79;30317;-61
2021/01/22 11:41:32;;;;;;;14.85;8.15;;;;;;;24.71;25.19;97892.70;3632942;79;26286;-62
2021/01/22 11:46:37;;;;;;;25.00;6.97;;;;;;;24.80;24.98;97895.89;3595426;79;62544;-66
2021/01/22 11:51:38;;;;;;;3.17;2.87;;;;;;;24.88;24.89;97885.86;3672245;79;25859;-60
2021/01/22 11:56:39;;;;;;;7.55;3.08;;;;;;;24.94;24.89;97886.52;3672149;79;30302;-62
2021/01/22 12:01:40;;;;;;;17.87;6.30;;;;;;;25.08;25.39;97879.86;3670963;79;26340;-68
2021/01/22 12:06:42;;;;;;;5.05;2.70;;;;;;;25.33;24.94;97869.77;3673833;79;30770;-70
2021/01/22 12:11:43;;;;;;;4.70;2.20;;;;;;;25.34;24.57;97868.61;3673395;79;26311;-69
2021/01/22 12:16:45;;;;;;;3.52;2.62;;;;;;;25.24;24.45;97869.30;3673956;79;25927;-59
2021/01/22 12:21:46;;;;;;;2.12;2.00;;;;;;;25.16;24.83;97870.59;3666895;79;25846;-49
2021/01/22 12:26:48;;;;;;;44.73;18.37;;;;;;;25.21;25.05;97865.38;3677786;79;26063;-60
2021/01/22 12:31:50;;;;;;;13.65;4.92;;;;;;;25.23;25.18;97862.27;3674938;79;26328;-62
2021/01/22 12:36:51;;;;;;;3.98;2.33;;;;;;;25.27;25.14;97878.09;3660707;79;26134;-62
2021/01/22 12:41:52;;;;;;;4.08;2.20;;;;;;;25.13;24.97;97864.52;3671427;79;26065;-62
2021/01/22 12:57:53;;;;;;;4.35;3.30;;;;;;;20.26;24.86;97863.95;3599119;79;30109;-69
2021/01/22 13:02:55;;;;;;;4.12;3.42;;;;;;;17.84;27.73;97861.28;3581783;81;26404;-69
2021/01/22 13:12:50;;;;;;;4.80;2.73;;;;;;;14.89;35.90;97882.99;3606278;78;28384;-67
2021/01/22 13:17:52;;;;;;;124.72;59.67;;;;;;;13.55;35.58;97879.59;3532497;80;25926;-67
2021/01/22 13:22:53;;;;;;;5.77;3.33;;;;;;;12.42;37.14;97869.88;3516290;82;26055;-67
2021/01/22 13:27:54;;;;;;;8.60;3.13;;;;;;;11.60;38.81;97874.77;3518705;83;25857;-67
2021/01/22 13:32:56;;;;;;;3.47;3.10;;;;;;;10.72;40.43;97887.97;3518545;83;30156;-66
2021/01/22 13:37:57;;;;;;;4.80;2.67;;;;;;;10.07;42.08;97890.85;3531602;82;25766;-67
2021/01/22 13:42:58;;;;;;;10.25;3.50;;;;;;;9.68;43.50;97896.66;3541101;81;25837;-65
2021/01/22 13:48:03;;;;;;;6.87;3.70;;;;;;;9.39;44.76;97890.66;3568742;80;35273;-68
2021/01/22 13:53:04;;;;;;;8.35;3.85;;;;;;;9.19;45.65;97881.94;3483967;81;25877;-63
2021/01/22 13:58:07;;;;;;;12.85;5.30;;;;;;;8.98;46.65;97893.95;3459659;82;26420;-65
2021/01/22 14:03:10;;;;;;;8.15;4.10;;;;;;;8.82;47.42;97899.05;3425051;83;30320;-65
2021/01/22 14:08:13;;;;;;;5.30;4.12;;;;;;;8.70;48.14;97903.83;3473713;83;30247;-62
2021/01/22 14:13:15;;;;;;;5.53;3.98;;;;;;;8.53;48.68;97905.44;3486282;83;30290;-62
2021/01/22 14:18:17;;;;;;;6.42;3.37;;;;;;;8.43;49.50;97915.52;3481790;83;30222;-63
2021/01/22 14:23:19;;;;;;;5.83;3.70;;;;;;;8.34;50.07;97917.63;3500685;82;30357;-62
2021/01/22 14:28:21;;;;;;;9.05;5.08;;;;;;;8.31;50.62;97932.72;3491459;83;27323;-63
2021/01/22 14:33:23;;;;;;;5.58;3.27;;;;;;;8.20;51.10;97931.13;3494956;82;29932;-62
2021/01/22 14:38:25;;;;;;;6.15;3.67;;;;;;;8.15;51.61;97927.94;3498821;82;30123;-62
2021/01/22 14:43:27;;;;;;;11.93;4.80;;;;;;;8.09;51.97;97931.63;3486576;83;28310;-62
2021/01/22 14:48:29;;;;;;;6.25;4.03;;;;;;;8.03;52.39;97922.06;3499517;83;25818;-61
2021/01/22 14:53:30;;;;;;;7.28;5.17;;;;;;;7.96;52.81;97922.83;3480461;83;30605;-63
2021/01/22 14:58:32;;;;;;;9.30;5.30;;;;;;;7.84;53.15;97931.05;3471671;83;34967;-64
2021/01/22 15:03:36;;;;;;;6.47;5.00;;;;;;;7.71;53.68;97930.98;3485006;83;35063;-65
2021/01/22 15:08:42;;;;;;;6.97;4.47;;;;;;;7.58;54.08;97934.14;3489742;83;30579;-63
2021/01/22 15:13:42;;;;;;;3.62;2.20;;;;;;;7.46;54.55;97930.89;3479725;83;31112;-63
2021/01/22 15:18:45;;;;;;;7.78;4.53;;;;;;;7.37;55.17;97933.75;3487416;83;30819;-62
2021/01/22 15:23:47;;;;;;;10.15;5.03;;;;;;;7.26;55.53;97933.45;3483970;83;29933;-62
2021/01/22 15:28:50;;;;;;;8.18;4.08;;;;;;;7.20;56.12;97938.45;3478915;83;30785;-62
2021/01/22 15:33:51;;;;;;;9.38;4.92;;;;;;;7.10;56.51;97939.98;3487127;83;30167;-62
2021/01/22 15:38:54;;;;;;;7.30;4.15;;;;;;;7.06;56.87;97956.63;3496519;83;30278;-63
2021/01/22 15:43:56;;;;;;;10.45;6.58;;;;;;;6.96;57.21;97953.41;3487384;83;30317;-64
2021/01/22 15:48:59;;;;;;;9.58;5.55;;;;;;;6.92;57.86;97948.34;3489089;83;30670;-63
2021/01/22 15:54:02;;;;;;;9.60;7.95;;;;;;;6.89;57.96;97958.64;3483638;83;30190;-63
2021/01/22 15:59:05;;;;;;;12.45;5.35;;;;;;;6.83;58.32;97963.63;3485369;83;30139;-64
2021/01/22 16:04:07;;;;;;;8.17;5.63;;;;;;;6.78;58.67;97974.97;3420127;84;25983;-62
2021/01/22 16:09:08;;;;;;;8.70;4.33;;;;;;;6.71;59.03;97971.23;3353540;86;27449;-63
2021/01/22 16:14:11;;;;;;;9.93;4.87;;;;;;;6.67;59.36;97971.47;3393621;85;35068;-61
2021/01/22 16:19:14;;;;;;;11.03;5.70;;;;;;;6.61;59.64;97967.70;3379554;85;26380;-61
2021/01/22 16:24:17;;;;;;;10.25;6.10;;;;;;;6.56;59.93;97970.30;3370340;85;29828;-64
2021/01/22 16:29:19;;;;;;;10.45;4.78;;;;;;;6.50;60.16;97972.62;3374262;85;30319;-65
2021/01/22 16:34:22;;;;;;;13.22;8.75;;;;;;;6.46;60.45;97980.78;3378199;85;30672;-64
2021/01/22 16:39:24;;;;;;;13.88;7.03;;;;;;;6.39;60.68;97979.16;3383593;85;30681;-67
2021/01/22 16:44:26;;;;;;;15.95;7.65;;;;;;;6.43;60.71;97993.47;3381773;85;30579;-62
2021/01/22 16:49:28;;;;;;;10.97;7.83;;;;;;;6.52;60.94;97999.11;3388194;85;38058;-63
2021/01/22 16:54:29;;;;;;;16.10;8.43;;;;;;;6.55;61.22;97991.20;3388474;85;30111;-66
2021/01/22 16:59:31;;;;;;;15.15;7.33;;;;;;;6.52;61.25;97999.11;3385614;85;30050;-64
2021/01/22 17:04:32;;;;;;;13.65;6.95;;;;;;;6.48;61.39;97999.34;3383149;85;30140;-66
2021/01/22 17:09:36;;;;;;;14.65;9.08;;;;;;;6.41;61.61;97996.12;3381460;85;30046;-66
2021/01/22 17:14:38;;;;;;;17.52;6.35;;;;;;;6.35;61.86;97995.27;3356149;85;30133;-63
2021/01/22 17:19:40;;;;;;;10.85;6.47;;;;;;;6.30;61.97;97988.59;3391267;85;30601;-72
2021/01/22 17:24:42;;;;;;;14.18;8.33;;;;;;;6.22;62.29;97979.77;3459424;83;28639;-69
2021/01/22 17:29:46;;;;;;;17.27;8.90;;;;;;;6.25;62.35;97994.35;3463034;83;25976;-66
2021/01/22 17:34:51;;;;;;;15.20;9.10;;;;;;;6.29;62.42;98000.22;3463030;83;25954;-68
2021/01/22 17:39:56;;;;;;;74.30;36.05;;;;;;;6.28;62.60;98015.83;3463323;83;27838;-65
2021/01/22 17:45:00;;;;;;;16.00;12.13;;;;;;;6.27;62.81;98007.61;3455050;83;28430;-64
2021/01/22 17:50:04;;;;;;;17.57;10.48;;;;;;;6.23;62.92;98018.41;3457787;82;30946;-63
2021/01/22 17:55:08;;;;;;;17.52;9.35;;;;;;;6.15;63.05;98025.45;3428773;84;30482;-64
2021/01/22 18:00:11;;;;;;;18.50;9.93;;;;;;;6.07;63.26;98031.20;3386859;84;28704;-66
2021/01/22 18:05:14;;;;;;;10.78;6.85;;;;;;;6.01;63.45;98032.98;3446051;83;30277;-66
2021/01/22 18:10:16;;;;;;;20.20;10.30;;;;;;;5.97;63.65;98033.72;3465134;83;30178;-63
2021/01/22 18:15:19;;;;;;;16.02;8.30;;;;;;;6.02;63.66;98025.84;3480301;82;29059;-65
2021/01/22 18:20:21;;;;;;;18.25;10.05;;;;;;;6.08;63.67;98019.58;3457974;82;29979;-66
2021/01/22 18:25:25;;;;;;;15.18;9.15;;;;;;;6.07;63.92;98026.72;3444468;83;30666;-65
2021/01/22 18:30:30;;;;;;;14.80;8.63;;;;;;;6.08;64.16;98030.96;3436278;83;30285;-68
2021/01/22 18:35:31;;;;;;;18.07;8.25;;;;;;;6.06;64.19;98028.28;3453626;85;30173;-62
2021/01/22 18:40:32;;;;;;;12.23;7.03;;;;;;;5.99;64.25;98036.92;3463644;84;34904;-65
2021/01/22 18:45:34;;;;;;;20.32;9.03;;;;;;;5.95;64.45;98041.09;3449970;84;30117;-62
2021/01/22 18:50:35;;;;;;;17.73;9.70;;;;;;;5.90;64.65;98043.16;3459061;84;27024;-66
2021/01/22 18:55:39;;;;;;;14.27;8.27;;;;;;;5.94;64.58;98036.85;3457631;84;35390;-65
2021/01/22 19:00:42;;;;;;;19.82;9.40;;;;;;;6.00;64.64;98048.58;3457638;84;30223;-64
2021/01/22 19:05:44;;;;;;;19.62;9.20;;;;;;;5.99;64.80;98051.47;3450821;84;27412;-69
2021/01/22 19:10:46;;;;;;;28.73;11.80;;;;;;;5.96;64.94;98051.95;3447949;84;34848;-67
2021/01/22 19:15:49;;;;;;;21.37;9.78;;;;;;;5.94;64.98;98044.78;3424940;84;30081;-65
2021/01/22 19:20:51;;;;;;;17.73;11.30;;;;;;;5.88;65.08;98045.73;3424036;84;26066;-72
2021/01/22 19:25:56;;;;;;;19.00;10.82;;;;;;;5.81;65.14;98045.14;3472543;84;29669;-65
2021/01/22 19:30:57;;;;;;;23.45;10.95;;;;;;;5.82;65.02;98046.19;3464348;83;29412;-66
2021/01/22 19:36:03;;;;;;;25.25;10.68;;;;;;;5.85;65.17;98056.80;3469527;84;30146;-68
2021/01/22 19:41:06;;;;;;;18.92;10.05;;;;;;;5.82;65.37;98055.96;3468761;84;28427;-65
2021/01/22 19:46:08;;;;;;;20.32;10.82;;;;;;;5.80;65.47;98066.02;3471427;84;30185;-63
2021/01/22 19:51:12;;;;;;;19.62;10.40;;;;;;;5.72;65.53;98071.98;3472558;83;30172;-63
2021/01/22 19:56:14;;;;;;;19.50;11.68;;;;;;;5.64;65.57;98076.36;3467492;83;30201;-64
2021/01/22 20:01:17;;;;;;;27.87;14.87;;;;;;;5.49;65.56;98077.48;3447170;82;29385;-66
2021/01/22 20:06:19;;;;;;;35.58;16.17;;;;;;;5.50;65.60;98088.33;3434126;83;30780;-65
2021/01/22 20:11:21;;;;;;;28.20;16.30;;;;;;;5.49;65.79;98081.45;3452622;84;28901;-64
2021/01/22 20:16:25;;;;;;;26.45;13.90;;;;;;;5.51;65.99;98085.94;3472816;81;30044;-62
2021/01/22 20:21:29;;;;;;;23.35;12.53;;;;;;;5.43;66.09;98092.98;3446668;81;27274;-64
2021/01/22 20:26:30;;;;;;;28.30;13.40;;;;;;;5.33;66.23;98090.17;3480990;83;30188;-64
2021/01/22 20:31:32;;;;;;;28.33;14.70;;;;;;;5.35;66.23;98086.77;3475780;83;27277;-62
2021/01/22 20:36:34;;;;;;;19.82;15.25;;;;;;;5.36;66.41;98089.69;3471945;83;30288;-66
2021/01/22 20:41:36;;;;;;;19.07;12.43;;;;;;;5.33;66.71;98089.65;3461963;81;30944;-65
2021/01/22 20:46:37;;;;;;;22.77;12.65;;;;;;;5.26;66.85;98091.64;3464771;82;30505;-65
2021/01/22 20:51:39;;;;;;;19.53;15.00;;;;;;;5.22;67.12;98083.11;3490653;80;34988;-63
2021/01/22 20:56:42;;;;;;;28.60;14.58;;;;;;;5.23;66.94;98085.52;3446203;83;30436;-63
2021/01/22 21:01:44;;;;;;;27.77;13.83;;;;;;;5.23;67.11;98080.75;3471131;83;29986;-64
2021/01/22 21:06:45;;;;;;;26.55;15.13;;;;;;;5.13;67.41;98089.86;3472995;83;30049;-63
2021/01/22 21:11:51;;;;;;;27.73;14.95;;;;;;;5.10;67.65;98093.78;3469156;83;29315;-64
2021/01/22 21:16:50;;;;;;;28.23;14.30;;;;;;;5.16;67.52;98092.02;3454076;84;28861;-66
2021/01/22 21:21:54;;;;;;;27.87;13.77;;;;;;;5.15;67.59;98094.38;3444469;84;35221;-69
2021/01/22 21:26:57;;;;;;;24.18;14.75;;;;;;;5.13;67.84;98099.10;3439839;84;30248;-65
2021/01/22 21:31:59;;;;;;;26.33;14.30;;;;;;;5.10;67.97;98101.70;3412660;84;27404;-66
2021/01/22 21:37:01;;;;;;;29.00;15.18;;;;;;;5.02;67.98;98094.97;3439657;84;27334;-66
2021/01/22 21:42:03;;;;;;;25.50;13.53;;;;;;;5.00;67.88;98094.92;3426208;80;30375;-65
2021/01/22 21:47:05;;;;;;;27.82;14.65;;;;;;;4.99;68.16;98099.40;3388097;84;79461;-67
2021/01/22 21:52:07;;;;;;;23.20;13.40;;;;;;;5.03;68.53;98097.08;3354825;85;25837;-65
2021/01/22 21:57:10;;;;;;;25.93;16.27;;;;;;;4.93;68.13;98096.38;3332365;86;26487;-65
2021/01/22 22:02:13;;;;;;;26.93;16.57;;;;;;;4.84;68.53;98101.80;3354998;85;27368;-67
2021/01/22 22:07:15;;;;;;;31.70;16.10;;;;;;;4.84;68.33;98101.80;3364952;83;26807;-67
2021/01/22 22:12:17;;;;;;;22.70;13.17;;;;;;;4.81;68.62;98113.34;3373265;85;26510;-64
2021/01/22 22:17:21;;;;;;;21.80;12.98;;;;;;;4.78;68.95;98115.93;3400300;85;26568;-64
2021/01/22 22:22:24;;;;;;;27.77;17.57;;;;;;;4.75;69.39;98111.13;3386364;86;27500;-67
2021/01/22 22:27:27;;;;;;;30.33;15.50;;;;;;;4.84;69.04;98106.27;3395753;86;25938;-63
2021/01/22 22:32:29;;;;;;;17.73;9.27;;;;;;;4.80;69.12;98108.58;3349483;86;26466;-66
2021/01/22 22:37:34;;;;;;;26.17;14.43;;;;;;;4.70;68.99;98107.87;3370248;86;30106;-62
2021/01/22 22:42:34;;;;;;;23.00;13.73;;;;;;;4.55;69.19;98108.13;3386040;85;25899;-64
2021/01/22 22:47:36;;;;;;;31.23;16.35;;;;;;;4.42;69.15;98111.02;3340495;86;28301;-66
2021/01/22 22:52:37;;;;;;;28.87;15.43;;;;;;;4.29;69.00;98118.16;3333061;85;29980;-68
2021/01/22 22:57:40;;;;;;;28.23;17.73;;;;;;;4.25;69.44;98123.64;3373969;86;35026;-66
2021/01/22 23:02:44;;;;;;;30.97;14.73;;;;;;;4.18;69.83;98130.07;3365082;86;28188;-64
2021/01/22 23:07:47;;;;;;;36.60;15.33;;;;;;;4.14;70.23;98135.00;3376836;86;26091;-65
2021/01/22 23:12:50;;;;;;;20.50;11.57;;;;;;;4.20;69.94;98136.72;3365599;86;26348;-66
2021/01/22 23:17:52;;;;;;;27.40;16.10;;;;;;;4.17;70.07;98131.91;3371463;86;26247;-62
2021/01/22 23:22:55;;;;;;;21.87;14.57;;;;;;;4.17;70.57;98132.42;3497221;82;26608;-66
2021/01/22 23:28:00;;;;;;;26.93;14.33;;;;;;;4.06;70.28;98136.67;3468406;83;31230;-65
2021/01/22 23:33:02;;;;;;;28.25;18.02;;;;;;;4.04;70.64;98142.17;3459485;82;30726;-65
2021/01/22 23:38:05;;;;;;;30.85;16.70;;;;;;;4.16;70.66;98132.94;3472946;82;26368;-65
2021/01/22 23:43:07;;;;;;;32.60;16.65;;;;;;;4.16;70.66;98124.22;3499365;82;26819;-63
2021/01/22 23:48:09;;;;;;;29.47;14.27;;;;;;;4.12;70.76;98128.36;3498998;80;26075;-63
2021/01/22 23:53:11;;;;;;;24.27;16.95;;;;;;;4.03;70.83;98129.22;3487945;83;29251;-66
2021/01/22 23:58:14;;;;;;;32.20;18.07;;;;;;;4.04;70.44;98126.36;3526940;82;26615;-67